Latest Coastal Weather Observations for Low Head

IDT60701

Issued at 9:21 pm EST Friday 31 July 2015 (issued every 10 minutes, with the page automatically refreshed every 10 minutes)

About coastal observations | Map of coastal stations | Coastal observations for TAS | Marine services | Other Formats
Station Details ID: 091293 Name: LOW HEAD Lat: -41.05 Lon: 146.79 Height: 3.0 m
Data from the previous 72 hours. | See also: Recent months at Low Head
Date/Time
EST
Temp

°C
Wind Pressure Rain
since 9am
mm
Weather Cloud Vis
km
Sea
Height
m
Swell
Dir
 
Speed
knots
Gust
knots
hPa Trend Height
m
Period
s
Dir
31/09:00pm 10.7 NNW 23 27 1011.6 - 0.4 - - - - - - -
31/08:30pm 10.3 NNW 20 29 1012.0 - 0.4 - - - - - - -
31/08:00pm 9.6 NNW 16 19 1012.3 - 0.4 - - - - - - -
31/07:30pm 9.2 NW 22 27 1012.8 - 0.4 - - - - - - -
31/07:00pm 9.4 NNW 17 23 1012.8 - 0.2 - - - - - - -
31/06:40pm 9.7 NW 17 29 1013.0 - 0.2 - - - - - - -
31/06:30pm 9.7 NNW 16 19 1013.0 - 0.2 - - - - - - -
31/06:00pm 9.5 NW 15 18 1013.0 - 0.2 - - - - - - -
31/05:30pm 9.7 WNW 18 25 1013.2 - 0.2 - - - - - - -
31/05:29pm 9.7 NW 17 25 1013.1 - 0.2 - - - - - - -
31/05:00pm 9.7 NNW 15 18 1012.9 - 0.2 - - - - - - -
31/04:30pm 9.5 NW 14 19 1013.4 - 0.2 - - - - - - -
31/04:00pm 9.4 NW 16 20 1013.8 - 0.2 - - - - - - -
31/03:30pm 10.0 NW 15 18 1014.0 - 0.2 - - - - - - -
31/03:00pm 9.9 WNW 17 22 1014.4 - 0.2 Recent precip. - - - - - -
31/02:30pm 9.7 W 17 24 1014.5 - 0.0 - - - - - - -
31/02:00pm 11.4 NW 15 18 1014.8 - 0.0 - - - - - - -
31/01:30pm 10.8 NW 16 19 1015.3 - 0.0 - - - - - - -
31/01:00pm 10.5 WNW 15 18 1015.4 - 0.0 - - - - - - -
31/12:30pm 11.2 WNW 15 19 1016.0 - 0.0 - - - - - - -
31/12:00pm 11.0 WNW 13 16 1016.4 - 0.0 - - - - - - -
31/11:30am 10.5 WNW 14 16 1016.8 - 0.0 - - - - - - -
31/11:00am 10.0 WNW 15 18 1017.2 - 0.0 - - - - - - -
31/10:30am 9.6 WNW 14 17 1017.2 - 0.0 - - - - - - -
31/10:00am 9.1 W 16 19 1016.8 - 0.0 - - - - - - -
31/09:30am 8.9 W 13 16 1016.6 - 0.0 - - - - - - -
31/09:00am 8.3 W 12 14 1016.2 - 4.0 - - - - - - -
31/08:30am 8.4 W 15 18 1016.1 - 4.0 - - - - - - -
31/08:00am 8.2 W 17 19 1016.0 - 4.0 - - - - - - -
31/07:30am 8.1 W 17 20 1015.6 - 4.0 - - - - - - -
31/07:00am 8.2 W 17 21 1015.1 - 4.0 - - - - - - -
31/06:30am 8.0 W 16 19 1014.8 - 4.0 - - - - - - -
31/06:00am 8.1 WSW 17 19 1014.5 - 4.0 - - - - - - -
31/05:30am 7.5 SW 11 16 1014.4 - 4.0 - - - - - - -
31/05:00am 8.0 WSW 16 19 1013.9 - 4.0 - - - - - - -
31/04:30am 8.1 WSW 19 23 1013.9 - 4.0 - - - - - - -
31/04:00am 8.0 WSW 18 22 1013.6 - 4.0 - - - - - - -
31/03:30am 8.3 W 17 20 1013.4 - 4.0 - - - - - - -
31/03:00am 8.4 W 20 25 1013.0 - 4.0 - - - - - - -
31/02:30am 8.7 W 20 22 1012.8 - 4.0 - - - - - - -
31/02:00am 8.8 WSW 18 20 1012.6 - 4.0 - - - - - - -
31/01:30am 9.1 WSW 21 24 1011.9 - 4.0 - - - - - - -
31/01:00am 9.3 W 24 28 1011.2 - 4.0 - - - - - - -
31/12:30am 9.4 W 20 24 1010.9 - 4.0 - - - - - - -
31/12:00am 9.1 WSW 16 19 1009.9 - 4.0 - - - - - - -
 
Date/Time
EST
Temp

°C
Wind Pressure Rain
since 9am
mm
Weather Cloud Vis
km
Sea
Height
m
Swell
Dir
 
Speed
knots
Gust
knots
hPa Trend Height
m
Period
s
Dir
30/11:30pm 9.3 WSW 23 28 1009.2 - 4.0 - - - - - - -
30/11:00pm 9.7 WSW 22 29 1008.3 - 4.0 - - - - - - -
30/10:30pm 10.1 W 25 29 1007.4 - 4.0 - - - - - - -
30/10:00pm 9.9 W 25 30 1006.8 - 4.0 - - - - - - -
30/09:30pm 9.9 WNW 28 33 1006.4 - 4.0 - - - - - - -
30/09:00pm 10.3 W 27 32 1005.9 - 4.0 - - - - - - -
30/08:30pm 10.9 W 26 31 1004.9 - 4.0 - - - - - - -
30/08:08pm 10.9 WSW 26 40 1004.1 - 4.0 - - - - - - -
30/08:02pm 10.9 WSW 33 42 1003.8 - 4.0 - - - - - - -
30/08:00pm 10.8 W 33 42 1003.8 - 4.0 - - - - - - -
30/07:57pm 10.9 WNW 33 41 1003.8 - 4.0 - - - - - - -
30/07:53pm 10.6 NW 31 41 1003.8 - 4.0 - - - - - - -
30/07:35pm 10.6 NW 33 43 1004.3 - 4.0 - - - - - - -
30/07:30pm 10.6 NW 35 43 1004.4 - 4.0 - - - - - - -
30/07:00pm 10.8 NW 34 42 1004.6 - 4.0 - - - - - - -
30/06:51pm 10.7 NW 30 42 1004.6 - 3.8 - - - - - - -
30/06:30pm 10.9 NW 32 40 1005.0 - 3.8 - - - - - - -
30/06:00pm 11.3 NNW 28 35 1005.2 - 3.0 Recent precip. - - - - - -
30/05:43pm 11.1 NNW 27 37 1005.6 - 3.0 - - - - - - -
30/05:30pm 11.0 NNW 27 34 1005.9 - 3.0 - - - - - - -
30/05:00pm 10.6 NNW 26 37 1006.6 - 2.8 - - - - - - -
30/04:30pm 10.7 NNW 27 37 1007.1 - 2.0 - - - - - - -
30/04:16pm 10.4 NNW 27 37 1007.5 - 1.8 - - - - - - -
30/04:00pm 10.4 NNW 30 37 1007.7 - 1.4 - - - - - - -
30/03:53pm 10.5 NNW 27 37 1007.8 - 1.0 - - - - - - -
30/03:30pm 10.9 NNW 25 31 1008.2 - 0.4 - - - - - - -
30/03:17pm 10.8 NNW 26 36 1008.7 - 0.4 - - - - - - -
30/03:00pm 10.8 NNW 26 34 1008.8 - 0.2 Recent precip. - - - - - -
30/02:42pm 10.9 NNW 26 37 1009.1 - 0.2 - - - - - - -
30/02:30pm 10.9 NNW 24 29 1009.4 - 0.2 - - - - - - -
30/02:00pm 11.5 NW 29 36 1010.0 - 0.0 - - - - - - -
30/01:48pm 11.5 NW 29 39 1010.3 - 0.0 - - - - - - -
30/01:30pm 11.7 NNW 28 35 1010.7 - 0.0 - - - - - - -
30/01:00pm 11.7 NNW 27 36 1011.1 - 0.0 - - - - - - -
30/12:30pm 11.7 NNW 26 32 1011.9 - 0.0 - - - - - - -
30/12:00pm 11.6 NNW 24 30 1012.9 - 0.0 - - - - - - -
30/11:30am 11.9 NNW 25 30 1014.2 - 0.0 - - - - - - -
30/11:00am 11.3 NNW 23 28 1014.6 - 0.0 - - - - - - -
30/10:30am 11.3 NNW 22 27 1015.5 - 0.0 - - - - - - -
30/10:00am 11.3 NNW 21 26 1016.1 - 0.0 - - - - - - -
30/09:30am 11.1 NNW 21 25 1016.5 - 0.0 - - - - - - -
30/09:00am 11.1 NNW 21 25 1016.7 - 0.6 - - - - - - -
30/08:30am 11.2 NNW 22 28 1017.4 - 0.6 - - - - - - -
30/08:00am 11.1 NNW 22 26 1017.6 - 0.6 - - - - - - -
30/07:30am 11.2 NNW 20 24 1017.8 - 0.6 - - - - - - -
30/07:00am 11.1 NNW 20 24 1017.8 - 0.6 - - - - - - -
30/06:30am 11.1 NNW 19 23 1018.1 - 0.6 - - - - - - -
30/06:00am 11.0 NW 19 22 1018.6 - 0.6 - - - - - - -
30/05:30am 11.2 NW 20 24 1018.9 - 0.6 - - - - - - -
30/05:00am 11.2 NW 19 22 1019.2 - 0.6 - - - - - - -
30/04:30am 11.1 NW 20 24 1019.8 - 0.6 - - - - - - -
30/04:00am 11.2 NW 23 26 1019.8 - 0.6 - - - - - - -
30/03:30am 11.3 NW 19 23 1020.1 - 0.6 - - - - - - -
30/03:00am 11.2 NW 19 23 1020.6 - 0.6 - - - - - - -
30/02:30am 11.4 NNW 17 21 1020.9 - 0.6 - - - - - - -
30/02:00am 11.3 NNW 17 21 1021.6 - 0.6 - - - - - - -
30/01:30am 11.3 NW 19 23 1022.2 - 0.6 - - - - - - -
30/01:00am 11.0 NW 18 22 1022.5 - 0.6 - - - - - - -
30/12:30am 10.8 NW 15 18 1022.9 - 0.2 - - - - - - -
30/12:00am 11.2 NW 14 17 1023.1 - 0.2 - - - - - - -
 
Date/Time
EST
Temp

°C
Wind Pressure Rain
since 9am
mm
Weather Cloud Vis
km
Sea
Height
m
Swell
Dir
 
Speed
knots
Gust
knots
hPa Trend Height
m
Period
s
Dir
29/11:30pm 11.5 NW 18 21 1023.5 - 0.2 - - - - - - -
29/11:00pm 11.6 NW 18 21 1023.8 - 0.2 - - - - - - -
29/10:30pm 11.6 NW 17 20 1024.2 - 0.2 - - - - - - -
29/10:00pm 11.6 NW 17 20 1024.4 - 0.2 - - - - - - -
29/09:30pm 11.6 NW 17 21 1024.6 - 0.2 - - - - - - -
29/09:00pm 11.6 NW 18 21 1024.7 - 0.2 - - - - - - -
29/08:30pm 11.6 NW 18 21 1024.9 - 0.2 - - - - - - -
29/08:00pm 11.5 NW 19 23 1024.8 - 0.2 - - - - - - -
29/07:30pm 11.5 NW 17 20 1024.9 - 0.2 - - - - - - -
29/07:00pm 11.5 NW 18 21 1024.9 - 0.2 - - - - - - -
29/06:30pm 11.5 NW 18 21 1024.8 - 0.2 - - - - - - -
29/06:00pm 11.5 NW 16 19 1024.8 - 0.2 - - - - - - -
29/05:30pm 11.5 NW 16 19 1024.9 - 0.2 - - - - - - -
29/05:00pm 11.4 NW 18 22 1024.9 - 0.2 - - - - - - -
29/04:30pm 11.4 NW 13 16 1025.2 - 0.2 - - - - - - -
29/04:00pm 11.2 WNW 17 22 1025.6 - 0.2 - - - - - - -
29/03:30pm 11.3 WNW 17 20 1025.8 - 0.2 - - - - - - -
29/03:00pm 11.0 WNW 15 17 1026.0 - 0.2 - - - - - - -
29/02:30pm 10.8 WNW 18 22 1026.2 - 0.2 - - - - - - -
29/02:00pm 11.0 WNW 16 20 1026.4 - 0.2 - - - - - - -
29/01:30pm 11.1 W 8 11 1026.9 - 0.2 - - - - - - -
29/01:00pm 11.3 WNW 8 11 1027.5 - 0.2 - - - - - - -
29/12:30pm 11.6 WNW 5 7 1028.0 - 0.2 - - - - - - -
29/12:00pm 11.5 WNW 5 7 1028.6 - 0.0 - - - - - - -
29/11:30am 11.1 WNW 6 7 1029.2 - 0.0 - - - - - - -
29/11:00am 10.8 WNW 7 8 1029.5 - 0.0 - - - - - - -
29/10:30am 10.4 W 6 7 1029.6 - 0.0 - - - - - - -
29/10:00am 10.2 W 8 9 1029.8 - 0.0 - - - - - - -
29/09:30am 10.1 W 12 15 1030.1 - 0.0 - - - - - - -
29/09:00am 10.3 W 15 18 1030.1 - 0.0 - - - - - - -
29/08:30am 10.1 WNW 13 15 1030.1 - 0.0 - - - - - - -
29/08:00am 9.9 W 12 14 1030.1 - 0.0 - - - - - - -
29/07:30am 9.8 WNW 13 16 1029.8 - 0.0 - - - - - - -
29/07:00am 9.8 WNW 14 16 1029.8 - 0.0 - - - - - - -
29/06:30am 9.9 WNW 14 16 1029.7 - 0.0 - - - - - - -
29/06:00am 9.7 WNW 14 16 1029.4 - 0.0 - - - - - - -
29/05:30am 9.7 WNW 16 19 1029.3 - 0.0 - - - - - - -
29/05:00am 9.8 WNW 17 19 1029.2 - 0.0 - - - - - - -
29/04:30am 9.8 WNW 16 19 1029.0 - 0.0 - - - - - - -
29/04:00am 9.9 WNW 15 19 1029.1 - 0.0 - - - - - - -
29/03:30am 10.1 W 16 19 1029.1 - 0.0 - - - - - - -
29/03:00am 10.1 W 16 18 1029.2 - 0.0 - - - - - - -
29/02:30am 10.2 W 17 18 1029.1 - 0.0 - - - - - - -
29/02:00am 10.2 WNW 18 20 1029.2 - 0.0 - - - - - - -
29/01:30am 10.3 WNW 18 21 1029.2 - 0.0 - - - - - - -
29/01:00am 10.4 W 16 19 1029.2 - 0.0 - - - - - - -
29/12:30am 10.5 W 18 20 1029.6 - 0.0 - - - - - - -
29/12:00am 10.6 WNW 16 19 1029.7 - 0.0 - - - - - - -
 
Date/Time
EST
Temp

°C
Wind Pressure Rain
since 9am
mm
Weather Cloud Vis
km
Sea
Height
m
Swell
Dir
 
Speed
knots
Gust
knots
hPa Trend Height
m
Period
s
Dir
28/11:30pm 10.7 WNW 17 20 1029.7 - 0.0 - - - - - - -
28/11:00pm 10.8 WNW 20 23 1029.5 - 0.0 - - - - - - -
28/10:30pm 10.9 WNW 19 22 1029.5 - 0.0 - - - - - - -
28/10:00pm 11.0 WNW 17 21 1029.4 - 0.0 - - - - - - -
28/09:30pm 11.0 WNW 17 20 1029.3 - 0.0 - - - - - - -

Other Formats:

Comma delimited format used in spreadsheet applications
http://www.bom.gov.au/fwo/IDT60701/IDT60701.95964.axf

JavaScript Object Notation format (JSON) in row-major order
http://www.bom.gov.au/fwo/IDT60701/IDT60701.95964.json